createdAt,value
2022-08-05T00:00:00.477Z,13.21
2022-08-05T00:02:07.670Z,13.20
2022-08-05T00:04:11.679Z,13.19
2022-08-05T00:06:29.091Z,13.18
2022-08-05T00:08:38.547Z,13.15
2022-08-05T00:10:42.332Z,13.15
2022-08-05T00:12:56.529Z,13.12
2022-08-05T00:15:54.382Z,13.12
2022-08-05T00:17:25.734Z,13.12
2022-08-05T00:19:33.845Z,13.12
2022-08-05T00:21:49.584Z,13.13
2022-08-05T00:24:05.080Z,13.11
2022-08-05T00:26:16.447Z,13.10
2022-08-05T00:28:21.150Z,13.06
2022-08-05T00:30:33.245Z,13.04
2022-08-05T00:32:37.176Z,13.03
2022-08-05T00:35:03.547Z,13.02
2022-08-05T00:37:14.404Z,12.99
2022-08-05T00:39:19.958Z,12.96
2022-08-05T00:41:51.436Z,12.92
2022-08-05T00:43:54.975Z,12.88
2022-08-05T00:45:58.779Z,12.88
2022-08-05T00:48:05.485Z,12.85
2022-08-05T00:50:10.587Z,12.84
2022-08-05T00:52:14.667Z,12.84
2022-08-05T00:54:22.609Z,12.80
2022-08-05T00:56:31.856Z,12.78
2022-08-05T00:58:35.483Z,12.76
2022-08-05T01:00:42.134Z,12.74
2022-08-05T01:02:46.146Z,12.73
2022-08-05T01:04:50.351Z,12.70
2022-08-05T01:06:55.052Z,12.70
2022-08-05T01:08:58.749Z,12.69
2022-08-05T01:11:08.343Z,12.67
2022-08-05T01:13:27.338Z,12.66
2022-08-05T01:15:36.857Z,12.63
2022-08-05T01:17:45.227Z,12.60
2022-08-05T01:20:11.585Z,12.59
2022-08-05T01:22:52.868Z,12.57
2022-08-05T01:25:20.892Z,12.53
2022-08-05T01:28:02.172Z,12.50
2022-08-05T01:30:17.805Z,12.45
2022-08-05T01:32:27.657Z,12.40
2022-08-05T01:34:39.972Z,12.37
2022-08-05T01:36:48.353Z,12.36
2022-08-05T01:38:52.502Z,12.33
2022-08-05T01:40:58.939Z,12.32
2022-08-05T01:43:04.924Z,12.30
2022-08-05T01:45:11.133Z,12.29
2022-08-05T01:47:19.004Z,12.29
2022-08-05T01:49:25.973Z,12.28
2022-08-05T01:51:52.065Z,12.28
2022-08-05T01:53:58.824Z,12.29
2022-08-05T01:56:04.689Z,12.30
2022-08-05T01:58:16.736Z,12.30
2022-08-05T02:00:20.988Z,12.28
2022-08-05T02:02:35.369Z,12.24
2022-08-05T02:04:42.151Z,12.20
2022-08-05T02:06:50.069Z,12.21
2022-08-05T02:08:57.829Z,12.19
2022-08-05T02:11:08.603Z,12.17
2022-08-05T02:13:20.423Z,12.17
2022-08-05T02:15:33.363Z,12.15
2022-08-05T02:18:32.403Z,12.14
2022-08-05T02:20:12.889Z,12.14
2022-08-05T02:22:25.641Z,12.13
2022-08-05T02:24:40.638Z,12.13
2022-08-05T02:26:54.735Z,12.11
2022-08-05T02:29:00.461Z,12.11
2022-08-05T02:31:14.370Z,12.13
2022-08-05T02:33:24.498Z,12.13
2022-08-05T02:35:50.918Z,12.14
2022-08-05T02:38:02.566Z,12.13
2022-08-05T02:40:09.486Z,12.12
2022-08-05T02:42:25.923Z,12.09
2022-08-05T02:44:36.868Z,12.05
2022-08-05T02:46:53.124Z,12.01
2022-08-05T02:49:02.536Z,12.01
2022-08-05T02:51:06.853Z,11.98
2022-08-05T02:53:18.820Z,11.97
2022-08-05T02:55:53.711Z,11.96
2022-08-05T02:58:09.415Z,11.95
2022-08-05T03:00:13.988Z,11.92
2022-08-05T03:02:21.183Z,11.90
2022-08-05T03:04:24.996Z,11.89
2022-08-05T03:06:57.160Z,11.88
2022-08-05T03:08:53.415Z,11.89
2022-08-05T03:11:53.288Z,11.87
2022-08-05T03:13:20.899Z,11.87
2022-08-05T03:15:32.482Z,11.87
2022-08-05T03:17:41.760Z,11.85
2022-08-05T03:19:45.556Z,11.85
2022-08-05T03:21:49.824Z,11.84
2022-08-05T03:23:54.197Z,11.84
2022-08-05T03:26:30.393Z,11.83
2022-08-05T03:28:21.383Z,11.80
2022-08-05T03:30:33.347Z,11.80
2022-08-05T03:32:40.366Z,11.81
2022-08-05T03:34:51.008Z,11.79
2022-08-05T03:36:54.856Z,11.77
2022-08-05T03:38:58.458Z,11.77
2022-08-05T03:41:08.152Z,11.78
2022-08-05T03:43:58.868Z,11.77
2022-08-05T03:45:57.201Z,11.76
2022-08-05T03:47:59.903Z,11.77
2022-08-05T03:50:03.439Z,11.76
2022-08-05T03:52:49.444Z,11.76
2022-08-05T03:55:50.143Z,11.76
2022-08-05T03:57:15.955Z,11.77
2022-08-05T03:59:26.231Z,11.79
2022-08-05T04:01:34.142Z,11.79
2022-08-05T04:03:41.521Z,11.76
2022-08-05T04:06:06.806Z,11.73
2022-08-05T04:08:29.695Z,11.69
2022-08-05T04:10:38.353Z,11.67
2022-08-05T04:14:44.411Z,11.64
2022-08-05T04:16:47.882Z,11.65
2022-08-05T04:18:54.278Z,11.63
2022-08-05T04:20:59.213Z,11.63
2022-08-05T04:23:02.502Z,11.61
2022-08-05T04:25:07.709Z,11.62
2022-08-05T04:27:15.323Z,11.61
2022-08-05T04:29:18.722Z,11.57
2022-08-05T04:31:23.133Z,11.55
2022-08-05T04:34:17.510Z,11.55
2022-08-05T04:36:11.382Z,11.56
2022-08-05T04:38:19.095Z,11.55
2022-08-05T04:40:22.483Z,11.55
2022-08-05T04:42:26.255Z,11.56
2022-08-05T04:44:30.729Z,11.52
2022-08-05T04:46:34.137Z,11.51
2022-08-05T04:48:37.577Z,11.50
2022-08-05T04:51:02.848Z,11.49
2022-08-05T04:53:07.023Z,11.48
2022-08-05T04:55:14.886Z,11.50
2022-08-05T04:57:18.635Z,11.51
2022-08-05T04:59:38.516Z,11.52
2022-08-05T05:02:07.316Z,11.55
2022-08-05T05:04:06.384Z,11.59
2022-08-05T05:06:39.153Z,11.64
2022-08-05T05:08:38.144Z,11.69
2022-08-05T05:10:56.213Z,11.73
2022-08-05T05:12:59.955Z,11.79
2022-08-05T05:15:10.676Z,11.82
2022-08-05T05:17:14.384Z,11.87
2022-08-05T05:19:19.191Z,11.89
2022-08-05T05:21:22.832Z,11.89
2022-08-05T05:23:39.285Z,11.92
2022-08-05T05:25:55.500Z,11.94
2022-08-05T05:27:59.753Z,11.95
2022-08-05T05:30:05.190Z,11.98
2022-08-05T05:32:12.620Z,12.02
2022-08-05T05:34:26.672Z,12.08
2022-08-05T05:36:30.730Z,12.15
2022-08-05T05:38:34.903Z,12.27
2022-08-05T05:40:38.246Z,12.38
2022-08-05T05:42:48.405Z,12.48
2022-08-05T05:44:52.645Z,12.56
2022-08-05T05:47:04.574Z,12.63
2022-08-05T05:49:22.635Z,12.69
2022-08-05T05:51:27.795Z,12.75
2022-08-05T05:53:31.504Z,12.78
2022-08-05T05:56:01.363Z,12.85
2022-08-05T05:58:08.026Z,12.90
2022-08-05T06:00:15.308Z,12.94
2022-08-05T06:02:32.502Z,13.04
2022-08-05T06:04:41.055Z,13.45
2022-08-05T06:06:47.461Z,14.20
2022-08-05T06:08:52.326Z,15.05
2022-08-05T06:10:56.849Z,15.84
2022-08-05T06:13:00.228Z,16.54
2022-08-05T06:15:08.106Z,17.13
2022-08-05T06:17:22.476Z,17.64
2022-08-05T06:19:34.599Z,17.47
2022-08-05T06:21:42.909Z,17.08
2022-08-05T06:23:53.231Z,16.99
2022-08-05T06:26:12.661Z,16.88
2022-08-05T06:28:21.379Z,17.00
2022-08-05T06:30:27.317Z,17.54
2022-08-05T06:32:31.824Z,18.06
2022-08-05T06:34:35.093Z,18.51
2022-08-05T06:36:57.601Z,18.88
2022-08-05T06:39:01.671Z,19.35
2022-08-05T06:41:07.794Z,19.35
2022-08-05T06:43:57.263Z,18.81
2022-08-05T06:45:44.839Z,17.83
2022-08-05T06:48:35.996Z,17.05
2022-08-05T06:50:22.834Z,16.32
2022-08-05T06:52:38.094Z,15.84
2022-08-05T06:54:41.868Z,15.40
2022-08-05T06:56:55.163Z,15.09
2022-08-05T06:59:11.884Z,14.87
2022-08-05T07:01:16.774Z,14.83
2022-08-05T07:03:27.942Z,15.17
2022-08-05T07:05:41.099Z,15.81
2022-08-05T07:07:45.419Z,16.19
2022-08-05T07:09:55.435Z,16.30
2022-08-05T07:12:01.653Z,16.22
2022-08-05T07:14:30.335Z,15.99
2022-08-05T07:17:56.413Z,15.68
2022-08-05T07:19:16.142Z,15.39
2022-08-05T07:21:29.612Z,15.15
2022-08-05T07:23:52.981Z,14.96
2022-08-05T07:25:56.968Z,14.78
2022-08-05T07:28:06.057Z,14.62
2022-08-05T07:30:27.578Z,14.47
2022-08-05T07:32:38.187Z,14.38
2022-08-05T07:34:42.475Z,14.34
2022-08-05T07:36:46.230Z,14.30
2022-08-05T07:38:55.135Z,14.28
2022-08-05T07:41:00.321Z,14.32
2022-08-05T07:43:20.143Z,14.33
2022-08-05T07:45:43.361Z,14.34
2022-08-05T07:47:49.279Z,14.29
2022-08-05T07:49:59.446Z,14.30
2022-08-05T07:52:02.738Z,14.36
2022-08-05T07:54:08.478Z,14.47
2022-08-05T07:57:00.233Z,14.63
2022-08-05T07:58:57.749Z,14.74
2022-08-05T08:01:00.417Z,14.80
2022-08-05T08:03:15.847Z,14.85
2022-08-05T08:05:19.465Z,14.85
2022-08-05T08:07:23.902Z,14.83
2022-08-05T08:09:29.094Z,14.88
2022-08-05T08:11:51.293Z,14.89
2022-08-05T08:14:00.727Z,14.95
2022-08-05T08:16:50.084Z,15.00
2022-08-05T08:18:30.111Z,15.06
2022-08-05T08:21:00.051Z,15.16
2022-08-05T08:22:59.363Z,15.32
2022-08-05T08:25:16.207Z,15.53
2022-08-05T08:27:20.740Z,15.82
2022-08-05T08:30:03.908Z,16.03
2022-08-05T08:31:48.271Z,16.18
2022-08-05T08:33:53.519Z,16.23
2022-08-05T08:36:29.507Z,16.36
2022-08-05T08:38:35.947Z,16.53
2022-08-05T08:40:41.803Z,16.75
2022-08-05T08:42:53.214Z,16.80
2022-08-05T08:45:23.302Z,16.84
2022-08-05T08:48:06.147Z,16.96
2022-08-05T08:50:22.509Z,17.00
2022-08-05T08:52:24.807Z,17.05
2022-08-05T08:54:29.196Z,17.11
2022-08-05T08:56:34.057Z,17.17
2022-08-05T08:58:44.649Z,17.32
2022-08-05T09:00:52.515Z,17.34
2022-08-05T09:02:56.643Z,17.31
2022-08-05T09:05:17.224Z,17.20
2022-08-05T09:07:29.196Z,17.01
2022-08-05T09:09:45.387Z,16.81
2022-08-05T09:11:57.788Z,16.76
2022-08-05T09:14:54.867Z,16.70
2022-08-05T09:16:31.261Z,16.66
2022-08-05T09:18:41.315Z,16.70
2022-08-05T09:20:51.583Z,16.75
2022-08-05T09:23:19.057Z,16.84
2022-08-05T09:26:03.068Z,16.79
2022-08-05T09:28:04.536Z,16.81
2022-08-05T09:30:16.469Z,16.87
2022-08-05T09:32:45.857Z,16.82
2022-08-05T09:34:51.886Z,16.68
2022-08-05T09:36:59.448Z,16.56
2022-08-05T09:39:18.012Z,16.45
2022-08-05T09:41:22.451Z,16.34
2022-08-05T09:43:40.883Z,16.36
2022-08-05T09:46:06.465Z,16.55
2022-08-05T09:48:21.967Z,16.69
2022-08-05T09:50:44.638Z,16.81
2022-08-05T09:53:00.084Z,16.83
2022-08-05T09:55:56.586Z,16.74
2022-08-05T09:57:43.228Z,16.78
2022-08-05T09:59:49.606Z,16.83
2022-08-05T10:01:57.905Z,16.92
2022-08-05T10:04:10.272Z,16.99
2022-08-05T10:06:15.982Z,16.94
2022-08-05T10:08:37.518Z,16.85
2022-08-05T10:10:54.310Z,16.76
2022-08-05T10:13:00.458Z,16.73
2022-08-05T10:15:20.269Z,16.67
2022-08-05T10:17:38.119Z,16.73
2022-08-05T10:20:03.902Z,16.75
2022-08-05T10:22:15.784Z,16.69
2022-08-05T10:24:35.048Z,16.54
2022-08-05T10:26:51.539Z,16.49
2022-08-05T10:28:56.795Z,16.42
2022-08-05T10:32:49.648Z,16.41
2022-08-05T10:33:29.401Z,16.36
2022-08-05T10:35:40.621Z,16.28
2022-08-05T10:37:49.395Z,16.16
2022-08-05T10:40:18.462Z,16.08
2022-08-05T10:42:33.751Z,16.00
2022-08-05T10:44:39.584Z,15.97
2022-08-05T10:46:50.702Z,15.96
2022-08-05T10:49:02.760Z,15.94
2022-08-05T10:51:21.928Z,15.97
2022-08-05T10:53:54.740Z,15.90
2022-08-05T10:56:14.933Z,15.84
2022-08-05T10:58:48.044Z,15.72
2022-08-05T11:00:54.996Z,15.57
2022-08-05T11:03:25.259Z,15.45
2022-08-05T11:05:31.689Z,15.35
2022-08-05T11:08:02.545Z,15.28
2022-08-05T11:10:09.614Z,15.22
2022-08-05T11:12:55.242Z,15.07
2022-08-05T11:15:19.289Z,15.04
2022-08-05T11:17:59.229Z,15.07
2022-08-05T11:20:10.754Z,15.19
2022-08-05T11:22:43.019Z,15.38
2022-08-05T11:25:01.585Z,15.57
2022-08-05T11:27:50.160Z,15.82
2022-08-05T11:30:02.585Z,16.08
2022-08-05T11:32:27.813Z,16.34
2022-08-05T11:34:39.507Z,16.55
2022-08-05T11:36:52.803Z,16.81
2022-08-05T11:38:57.837Z,17.05
2022-08-05T11:41:34.852Z,17.22
2022-08-05T11:44:00.927Z,17.29
2022-08-05T11:46:27.214Z,17.24
2022-08-05T11:48:16.825Z,17.12
2022-08-05T11:50:22.672Z,17.06
2022-08-05T11:52:29.270Z,17.09
2022-08-05T11:54:34.921Z,17.10
2022-08-05T11:56:50.433Z,17.14
2022-08-05T11:58:55.735Z,17.14
2022-08-05T12:01:10.478Z,17.16
2022-08-05T12:03:29.481Z,17.21
2022-08-05T12:05:39.535Z,17.32
2022-08-05T12:08:08.521Z,17.40
2022-08-05T12:10:13.590Z,17.46
2022-08-05T12:12:24.100Z,17.47
2022-08-05T12:14:39.259Z,17.51
2022-08-05T12:16:48.809Z,17.56
2022-08-05T12:18:53.567Z,17.58
2022-08-05T12:20:57.332Z,17.67
2022-08-05T12:23:10.148Z,17.79
2022-08-05T12:25:14.261Z,17.79
2022-08-05T12:27:25.300Z,17.69
2022-08-05T12:29:38.008Z,17.65
2022-08-05T12:31:53.442Z,17.57
2022-08-05T12:33:58.571Z,17.58
2022-08-05T12:36:04.248Z,17.70
2022-08-05T12:38:11.603Z,17.90
2022-08-05T12:40:20.909Z,18.09
2022-08-05T12:42:31.982Z,18.13
2022-08-05T12:44:35.708Z,17.96
2022-08-05T12:46:41.246Z,17.85
2022-08-05T12:48:58.734Z,17.72
2022-08-05T12:52:11.190Z,17.57
2022-08-05T12:53:41.765Z,17.40
2022-08-05T12:55:47.852Z,17.30
2022-08-05T12:58:48.551Z,17.25
2022-08-05T13:02:03.686Z,17.29
2022-08-05T13:02:55.462Z,17.35
2022-08-05T13:05:00.834Z,17.39
2022-08-05T13:07:10.330Z,17.45
2022-08-05T13:09:15.668Z,17.53
2022-08-05T13:12:02.781Z,17.62
2022-08-05T13:14:04.666Z,17.69
2022-08-05T13:16:16.933Z,17.71
2022-08-05T13:18:20.871Z,17.71
2022-08-05T13:20:35.591Z,17.72
2022-08-05T13:22:49.326Z,17.68
2022-08-05T13:24:58.118Z,17.61
2022-08-05T13:27:05.382Z,17.57
2022-08-05T13:29:19.041Z,17.56
2022-08-05T13:32:04.330Z,17.48
2022-08-05T13:34:21.666Z,17.50
2022-08-05T13:36:27.882Z,17.57
2022-08-05T13:38:36.064Z,17.69
2022-08-05T13:40:48.119Z,17.73
2022-08-05T13:42:55.688Z,17.68
2022-08-05T13:44:59.633Z,17.62
2022-08-05T13:47:08.558Z,17.54
2022-08-05T13:49:13.032Z,17.45
2022-08-05T13:51:17.136Z,17.33
2022-08-05T13:53:22.259Z,17.27
2022-08-05T13:55:41.846Z,17.18
2022-08-05T13:57:51.951Z,17.15
2022-08-05T13:59:59.305Z,17.14
2022-08-05T14:02:20.096Z,17.11
2022-08-05T14:04:41.266Z,17.09
2022-08-05T14:06:47.569Z,17.12
2022-08-05T14:08:52.850Z,17.18
2022-08-05T14:10:59.840Z,17.21
2022-08-05T14:13:20.160Z,17.25
2022-08-05T14:16:04.312Z,17.37
2022-08-05T14:17:51.579Z,17.46
2022-08-05T14:20:04.741Z,17.54
2022-08-05T14:22:12.315Z,17.62
2022-08-05T14:24:19.526Z,17.64
2022-08-05T14:26:36.969Z,17.68
2022-08-05T14:28:52.220Z,17.74
2022-08-05T14:30:56.019Z,17.83
2022-08-05T14:32:59.805Z,17.92
2022-08-05T14:35:03.583Z,17.99
2022-08-05T14:37:07.449Z,18.06
2022-08-05T14:39:23.424Z,18.13
2022-08-05T14:41:27.234Z,18.21
2022-08-05T14:44:02.221Z,18.28
2022-08-05T14:45:55.151Z,18.33
2022-08-05T14:48:05.823Z,18.36
2022-08-05T14:50:17.487Z,18.32
2022-08-05T14:52:50.405Z,18.29
2022-08-05T14:54:52.866Z,18.33
2022-08-05T14:56:57.189Z,18.37
2022-08-05T14:59:00.828Z,18.39
2022-08-05T15:01:06.852Z,18.35
2022-08-05T15:03:19.941Z,18.30
2022-08-05T15:05:30.072Z,18.20
2022-08-05T15:08:08.612Z,18.15
2022-08-05T15:10:16.632Z,18.16
2022-08-05T15:12:20.172Z,18.13
2022-08-05T15:14:35.881Z,18.06
2022-08-05T15:16:46.799Z,18.03
2022-08-05T15:18:50.751Z,17.99
2022-08-05T15:20:56.312Z,17.95
2022-08-05T15:23:05.595Z,17.86
2022-08-05T15:25:14.337Z,17.75
2022-08-05T15:27:20.085Z,17.73
2022-08-05T15:29:23.690Z,17.71
2022-08-05T15:31:34.861Z,17.69
2022-08-05T15:34:18.892Z,17.68
2022-08-05T15:36:03.692Z,17.69
2022-08-05T15:38:32.443Z,17.68
2022-08-05T15:41:01.188Z,17.66
2022-08-05T15:43:01.653Z,17.70
2022-08-05T15:45:16.969Z,17.73
2022-08-05T15:47:23.708Z,17.76
2022-08-05T15:49:53.742Z,17.84
2022-08-05T15:52:12.756Z,17.92
2022-08-05T15:54:15.791Z,18.00
2022-08-05T15:56:20.225Z,18.09
2022-08-05T15:58:25.464Z,18.19
2022-08-05T16:00:50.486Z,18.28
2022-08-05T16:02:54.228Z,18.35
2022-08-05T16:04:58.251Z,18.38
2022-08-05T16:07:02.012Z,18.34
2022-08-05T16:09:06.046Z,18.29
2022-08-05T16:11:13.578Z,18.26
2022-08-05T16:13:19.346Z,18.24
2022-08-05T16:15:32.657Z,18.19
2022-08-05T16:17:37.858Z,18.14
2022-08-05T16:20:04.468Z,18.12
2022-08-05T16:22:10.665Z,18.10
2022-08-05T16:24:41.007Z,18.07
2022-08-05T16:26:51.631Z,18.07
2022-08-05T16:28:55.949Z,18.08
2022-08-05T16:31:01.184Z,18.04
2022-08-05T16:33:05.221Z,17.99
2022-08-05T16:35:09.728Z,17.92
2022-08-05T16:38:02.683Z,17.84
2022-08-05T16:40:05.867Z,17.81
2022-08-05T16:42:13.749Z,17.74
2022-08-05T16:44:21.002Z,17.66
2022-08-05T16:46:30.185Z,17.61
2022-08-05T16:48:35.825Z,17.58
2022-08-05T16:50:39.510Z,17.57
2022-08-05T16:52:45.930Z,17.58
2022-08-05T16:54:49.774Z,17.62
2022-08-05T16:56:53.568Z,17.63
2022-08-05T16:58:57.351Z,17.65
2022-08-05T17:01:01.115Z,17.69
2022-08-05T17:03:19.722Z,17.75
2022-08-05T17:05:24.359Z,17.80
2022-08-05T17:07:39.110Z,17.84
2022-08-05T17:09:57.539Z,17.86
2022-08-05T17:12:02.376Z,17.86
2022-08-05T17:14:06.837Z,17.85
2022-08-05T17:16:33.538Z,17.88
2022-08-05T17:18:41.059Z,17.86
2022-08-05T17:20:45.394Z,17.87
2022-08-05T17:22:55.517Z,17.89
2022-08-05T17:25:00.261Z,17.93
2022-08-05T17:27:05.071Z,17.98
2022-08-05T17:29:10.194Z,17.99
2022-08-05T17:31:24.430Z,18.02
2022-08-05T17:33:38.901Z,18.01
2022-08-05T17:36:07.927Z,18.03
2022-08-05T17:38:14.300Z,18.05
2022-08-05T17:40:22.573Z,18.06
2022-08-05T17:42:31.833Z,18.07
2022-08-05T17:44:36.238Z,18.12
2022-08-05T17:46:39.581Z,18.16
2022-08-05T17:48:44.890Z,18.19
2022-08-05T17:50:53.544Z,18.20
2022-08-05T17:52:59.190Z,18.24
2022-08-05T17:55:03.242Z,18.27
2022-08-05T17:57:12.201Z,18.29
2022-08-05T17:59:20.989Z,18.29
2022-08-05T18:01:26.595Z,18.27
2022-08-05T18:03:59.255Z,18.22
2022-08-05T18:05:56.218Z,18.20
2022-08-05T18:08:06.171Z,18.19
2022-08-05T18:10:14.143Z,18.17
2022-08-05T18:12:25.416Z,18.16
2022-08-05T18:14:32.091Z,18.08
2022-08-05T18:16:47.002Z,18.04
2022-08-05T18:18:55.394Z,18.01
2022-08-05T18:21:03.267Z,17.98
2022-08-05T18:23:11.185Z,17.97
2022-08-05T18:25:17.109Z,17.90
2022-08-05T18:27:21.379Z,17.87
2022-08-05T18:29:40.464Z,17.82
2022-08-05T18:31:45.089Z,17.78
2022-08-05T18:33:49.806Z,17.76
2022-08-05T18:36:00.123Z,17.71
2022-08-05T18:38:10.824Z,17.66
2022-08-05T18:40:33.821Z,17.61
2022-08-05T18:42:39.920Z,17.59
2022-08-05T18:44:48.956Z,17.56
2022-08-05T18:46:59.033Z,17.51
2022-08-05T18:49:30.458Z,17.44
2022-08-05T18:52:04.583Z,17.40
2022-08-05T18:54:13.425Z,17.43
2022-08-05T18:56:17.598Z,17.52
2022-08-05T18:58:28.924Z,17.52
2022-08-05T19:00:34.695Z,17.47
2022-08-05T19:02:39.147Z,17.37
2022-08-05T19:05:01.301Z,17.27
2022-08-05T19:07:07.434Z,17.16
2022-08-05T19:09:13.813Z,17.09
2022-08-05T19:11:18.353Z,17.01
2022-08-05T19:13:36.145Z,16.95
2022-08-05T19:15:59.959Z,16.87
2022-08-05T19:18:09.304Z,16.81
2022-08-05T19:20:15.458Z,16.75
2022-08-05T19:22:27.509Z,16.71
2022-08-05T19:24:34.276Z,16.67
2022-08-05T19:26:44.055Z,16.63
2022-08-05T19:28:59.676Z,16.58
2022-08-05T19:31:05.975Z,16.55
2022-08-05T19:33:12.888Z,16.52
2022-08-05T19:35:21.746Z,16.48
2022-08-05T19:37:30.039Z,16.45
2022-08-05T19:39:51.537Z,16.41
2022-08-05T19:42:07.309Z,16.36
2022-08-05T19:44:14.218Z,16.31
2022-08-05T19:46:29.713Z,16.29
2022-08-05T19:48:34.638Z,16.24
2022-08-05T19:50:38.351Z,16.21
2022-08-05T19:52:42.844Z,16.18
2022-08-05T19:54:53.315Z,16.15
2022-08-05T19:56:57.644Z,16.12
2022-08-05T19:59:51.617Z,16.09
2022-08-05T20:01:28.332Z,16.06
2022-08-05T20:03:40.822Z,16.03
2022-08-05T20:05:51.257Z,16.00
2022-08-05T20:07:59.100Z,15.96
2022-08-05T20:10:04.734Z,15.94
2022-08-05T20:12:15.394Z,15.90
2022-08-05T20:14:26.696Z,15.88
2022-08-05T20:16:30.832Z,15.86
2022-08-05T20:18:35.829Z,15.85
2022-08-05T20:20:40.380Z,15.82
2022-08-05T20:22:44.448Z,15.78
2022-08-05T20:24:50.753Z,15.75
2022-08-05T20:26:59.249Z,15.74
2022-08-05T20:29:03.267Z,15.72
2022-08-05T20:31:07.626Z,15.70
2022-08-05T20:33:11.697Z,15.68
2022-08-05T20:35:17.651Z,15.67
2022-08-05T20:38:04.909Z,15.65
2022-08-05T20:39:51.543Z,15.63
2022-08-05T20:41:55.950Z,15.62
2022-08-05T20:44:19.101Z,15.58
2022-08-05T20:46:30.429Z,15.55
2022-08-05T20:48:37.223Z,15.53
2022-08-05T20:50:45.166Z,15.52
2022-08-05T20:52:49.219Z,15.49
2022-08-05T20:55:15.976Z,15.49
2022-08-05T20:57:41.884Z,15.45
2022-08-05T21:00:10.293Z,15.43
2022-08-05T21:02:09.563Z,15.39
2022-08-05T21:04:14.319Z,15.38
2022-08-05T21:06:27.531Z,15.35
2022-08-05T21:08:42.421Z,15.34
2022-08-05T21:10:48.817Z,15.30
2022-08-05T21:12:57.603Z,15.28
2022-08-05T21:15:03.437Z,15.25
2022-08-05T21:17:07.691Z,15.22
2022-08-05T21:19:11.781Z,15.19
2022-08-05T21:21:15.763Z,15.16
2022-08-05T21:23:19.432Z,15.12
2022-08-05T21:25:25.910Z,15.09
2022-08-05T21:27:38.894Z,15.07
2022-08-05T21:29:42.730Z,15.01
2022-08-05T21:31:53.577Z,14.97
2022-08-05T21:33:57.124Z,14.96
2022-08-05T21:36:03.057Z,14.93
2022-08-05T21:38:07.614Z,14.91
2022-08-05T21:40:13.797Z,14.87
2022-08-05T21:42:40.939Z,14.84
2022-08-05T21:44:43.805Z,14.83
2022-08-05T21:46:47.476Z,14.82
2022-08-05T21:48:56.580Z,14.78
2022-08-05T21:51:00.713Z,14.74
2022-08-05T21:53:16.153Z,14.70
2022-08-05T21:56:01.175Z,14.67
2022-08-05T21:57:45.326Z,14.62
2022-08-05T22:00:06.469Z,14.58
2022-08-05T22:02:16.577Z,14.54
2022-08-05T22:04:25.415Z,14.51
2022-08-05T22:06:35.569Z,14.49
2022-08-05T22:08:43.268Z,14.47
2022-08-05T22:10:50.981Z,14.45
2022-08-05T22:12:54.554Z,14.42
2022-08-05T22:15:00.792Z,14.38
2022-08-05T22:17:06.752Z,14.33
2022-08-05T22:19:57.222Z,14.29
2022-08-05T22:21:35.600Z,14.24
2022-08-05T22:24:01.835Z,14.23
2022-08-05T22:26:24.156Z,14.19
2022-08-05T22:28:28.102Z,14.16
2022-08-05T22:30:35.130Z,14.11
2022-08-05T22:32:39.525Z,14.08
2022-08-05T22:34:45.723Z,14.06
2022-08-05T22:36:51.765Z,14.03
2022-08-05T22:38:55.807Z,14.01
2022-08-05T22:41:00.412Z,13.99
2022-08-05T22:43:13.842Z,13.96
2022-08-05T22:45:17.612Z,13.93
2022-08-05T22:47:30.185Z,13.89
2022-08-05T22:50:20.258Z,13.85
2022-08-05T22:52:06.444Z,13.81
2022-08-05T22:54:12.544Z,13.78
2022-08-05T22:56:16.306Z,13.76
2022-08-05T22:58:28.349Z,13.74
2022-08-05T23:00:32.806Z,13.70
2022-08-05T23:02:40.070Z,13.68
2022-08-05T23:04:51.632Z,13.67
2022-08-05T23:06:56.208Z,13.66
2022-08-05T23:09:24.614Z,13.66
2022-08-05T23:11:25.257Z,13.64
2022-08-05T23:13:28.952Z,13.61
2022-08-05T23:15:34.892Z,13.59
2022-08-05T23:18:00.997Z,13.56
2022-08-05T23:20:02.782Z,13.52
2022-08-05T23:22:06.186Z,13.49
2022-08-05T23:24:12.678Z,13.47
2022-08-05T23:26:16.170Z,13.43
2022-08-05T23:28:21.920Z,13.42
2022-08-05T23:30:27.154Z,13.39
2022-08-05T23:32:32.887Z,13.38
2022-08-05T23:34:37.925Z,13.36
2022-08-05T23:36:44.504Z,13.33
2022-08-05T23:38:48.435Z,13.33
2022-08-05T23:40:54.854Z,13.31
2022-08-05T23:42:58.450Z,13.26
2022-08-05T23:45:02.437Z,13.24
2022-08-05T23:47:14.971Z,13.22
2022-08-05T23:49:23.796Z,13.20
2022-08-05T23:51:55.398Z,13.17
2022-08-05T23:54:00.908Z,13.13
2022-08-05T23:56:07.921Z,13.09
2022-08-05T23:58:32.168Z,13.04
